Niskayuna, New York
Current Conditions -  °F | °C
As of 3:51 AM on Saturday 25 Oct 2014 (Local Time) from KALB Reporting Station
Few Clouds Few Clouds  
Wind Chill: 44°   Ceiling: Unl
Heat Index: 46°   Visibility: 10mi
Dew Point: 40°   Wind: 5mph
Humidity: 79%   Direction: NA
Pressure: 29.84"   Gusts: NA
Location:  42.794°N, 73.866°W
Report Text: KALB 250751Z VRB04KT 10SM FEW230 08/04 A2984 RMK AO2 SLP104 T00780044 $
Loading
Personal Weather Stations






























Interactive Weather Map
Tropical Storm Tracking
New forecast layout! Learn more

10-Day Weather Forecast

Advertisements
Track Severe Weather on mobile